createdAt,value
2018-06-24T04:09:39.332Z,14.44
2018-06-24T04:10:04.815Z,14.41
2018-06-24T04:10:30.337Z,14.47
2018-06-24T04:10:55.806Z,14.51
2018-06-24T04:11:21.338Z,14.59
2018-06-24T04:11:46.834Z,14.5
2018-06-24T04:12:12.345Z,14.47
2018-06-24T04:12:37.803Z,14.47
2018-06-24T04:13:03.301Z,14.44
2018-06-24T04:13:28.775Z,14.43
2018-06-24T04:13:54.250Z,14.48
2018-06-24T04:14:19.725Z,14.54
2018-06-24T04:14:45.214Z,14.45
2018-06-24T04:15:10.701Z,14.59
2018-06-24T04:15:36.184Z,14.45
2018-06-24T04:16:01.694Z,14.48
2018-06-24T04:16:27.141Z,14.5
2018-06-24T04:16:52.601Z,14.48
2018-06-24T04:17:18.082Z,14.47
2018-06-24T04:18:16.608Z,14.48
2018-06-24T04:18:42.109Z,14.43
2018-06-24T04:19:07.606Z,14.48
2018-06-24T04:19:33.071Z,14.54
2018-06-24T04:19:58.576Z,14.45
2018-06-24T04:20:24.074Z,14.45
2018-06-24T04:20:49.551Z,14.51
2018-06-24T04:21:15.042Z,14.53
2018-06-24T04:21:40.520Z,14.51
2018-06-24T04:22:06.009Z,14.6
2018-06-24T04:22:31.501Z,14.51
2018-06-24T04:22:57.001Z,14.51
2018-06-24T04:23:22.492Z,14.54
2018-06-24T04:23:47.993Z,14.51
2018-06-24T04:24:13.497Z,14.48
2018-06-24T04:24:38.990Z,14.59
2018-06-24T04:25:04.468Z,14.48
2018-06-24T04:25:29.948Z,14.5
2018-06-24T04:25:55.451Z,14.5
2018-06-24T04:26:20.926Z,14.45
2018-06-24T04:26:46.461Z,14.47
2018-06-24T04:27:11.938Z,14.48
2018-06-24T04:27:37.428Z,14.51
2018-06-24T04:28:35.960Z,14.51
2018-06-24T04:29:01.467Z,14.53
2018-06-24T04:29:26.944Z,14.5
2018-06-24T04:29:52.406Z,14.51
2018-06-24T04:30:17.939Z,14.51
2018-06-24T04:30:43.427Z,14.51
2018-06-24T04:31:08.898Z,14.47
2018-06-24T04:31:34.384Z,14.47
2018-06-24T04:31:59.875Z,14.48
2018-06-24T04:32:25.405Z,14.5
2018-06-24T04:32:50.901Z,14.51
2018-06-24T04:33:16.376Z,14.48
2018-06-24T04:33:41.869Z,14.45
2018-06-24T04:34:07.333Z,14.6
2018-06-24T04:34:32.823Z,14.59
2018-06-24T04:34:58.310Z,14.55
2018-06-24T04:35:23.793Z,14.65
2018-06-24T04:35:49.305Z,14.53
2018-06-24T04:36:14.779Z,14.62
2018-06-24T04:36:40.252Z,14.53
2018-06-24T04:37:05.747Z,14.54
2018-06-24T04:37:31.243Z,14.59
2018-06-24T04:37:56.731Z,14.55
2018-06-24T04:38:22.191Z,14.59
2018-06-24T04:38:47.706Z,14.59
2018-06-24T04:39:13.205Z,14.65
2018-06-24T04:39:38.690Z,14.58
2018-06-24T04:40:04.193Z,14.58
2018-06-24T04:40:29.682Z,14.48
2018-06-24T04:40:55.173Z,14.65
2018-06-24T04:41:20.666Z,14.62
2018-06-24T04:41:46.181Z,14.59
2018-06-24T04:42:11.674Z,14.59
2018-06-24T04:42:37.165Z,14.58
2018-06-24T04:43:02.648Z,14.54
2018-06-24T04:43:28.158Z,14.54
2018-06-24T04:43:53.647Z,14.54
2018-06-24T04:44:19.148Z,14.59
2018-06-24T04:44:44.633Z,14.65
2018-06-24T04:45:10.161Z,14.68
2018-06-24T04:45:35.639Z,14.63
2018-06-24T04:46:01.135Z,14.62
2018-06-24T04:46:26.908Z,14.66
2018-06-24T04:46:52.330Z,14.68
2018-06-24T04:47:17.824Z,14.68
2018-06-24T04:47:43.339Z,14.66
2018-06-24T04:48:08.819Z,14.7
2018-06-24T04:48:34.325Z,14.77
2018-06-24T04:48:59.775Z,14.81
2018-06-24T04:49:25.273Z,14.78
2018-06-24T04:49:50.783Z,14.79
2018-06-24T04:50:16.279Z,14.77
2018-06-24T04:50:41.753Z,14.79
2018-06-24T04:51:07.273Z,14.7
2018-06-24T04:51:32.827Z,14.79
2018-06-24T04:51:58.214Z,14.85
2018-06-24T04:52:23.710Z,14.85
2018-06-24T04:52:49.218Z,14.84
2018-06-24T04:53:14.678Z,14.79
2018-06-24T04:53:40.186Z,14.84
2018-06-24T04:54:05.723Z,14.84
2018-06-24T04:54:31.163Z,14.81
2018-06-24T04:54:56.649Z,14.81
2018-06-24T04:55:22.151Z,14.77
2018-06-24T04:55:47.644Z,14.82
2018-06-24T04:56:13.135Z,14.79
2018-06-24T04:56:38.616Z,14.82
2018-06-24T04:57:04.098Z,14.81
2018-06-24T04:57:29.641Z,14.85
2018-06-24T04:57:55.084Z,14.82
2018-06-24T04:58:20.569Z,14.84
2018-06-24T04:58:46.036Z,14.82
2018-06-24T04:59:11.562Z,14.84
2018-06-24T04:59:37.069Z,14.85
2018-06-24T05:00:02.545Z,14.88
2018-06-24T05:00:28.002Z,14.84
2018-06-24T05:00:53.483Z,14.86
2018-06-24T05:02:02.197Z,14.86
2018-06-24T05:02:27.694Z,14.88
2018-06-24T05:02:53.195Z,14.84
2018-06-24T05:03:18.692Z,14.86
2018-06-24T05:03:44.206Z,14.89
2018-06-24T05:04:09.707Z,14.89
2018-06-24T05:04:35.206Z,14.86
2018-06-24T05:05:00.700Z,14.85
2018-06-24T05:05:26.168Z,14.82
2018-06-24T05:05:51.691Z,14.94
2018-06-24T05:06:17.157Z,14.97
2018-06-24T05:06:42.658Z,14.86
2018-06-24T05:07:08.381Z,14.88
2018-06-24T05:07:33.802Z,14.89
2018-06-24T05:07:59.193Z,14.96
2018-06-24T05:08:24.691Z,14.89
2018-06-24T05:08:50.171Z,15
2018-06-24T05:09:15.658Z,15.03
2018-06-24T05:09:41.164Z,15.03
2018-06-24T05:10:06.665Z,15.06
2018-06-24T05:10:32.158Z,15
2018-06-24T05:10:57.686Z,15.04
2018-06-24T05:11:23.159Z,15
2018-06-24T05:11:48.661Z,15.07
2018-06-24T05:12:14.122Z,14.99
2018-06-24T05:12:39.616Z,15.07
2018-06-24T05:13:05.107Z,15.09
2018-06-24T05:13:30.620Z,15.02
2018-06-24T05:13:56.131Z,15.06
2018-06-24T05:14:21.618Z,15.19
2018-06-24T05:14:47.111Z,15.07
2018-06-24T05:15:35.429Z,15.09
2018-06-24T05:16:00.917Z,15.14
2018-06-24T05:16:26.420Z,15.15
2018-06-24T05:16:51.920Z,15.11
2018-06-24T05:17:17.421Z,15.15
2018-06-24T05:17:42.924Z,15.14
2018-06-24T05:18:08.435Z,15.21
2018-06-24T05:18:33.923Z,15.24
2018-06-24T05:18:59.391Z,15.14
2018-06-24T05:20:03.018Z,15.15
2018-06-24T05:20:28.517Z,15.17
2018-06-24T05:20:54.013Z,15.24
2018-06-24T05:21:19.503Z,15.22
2018-06-24T05:21:44.998Z,15.19
2018-06-24T05:22:10.510Z,15.21
2018-06-24T05:22:36.010Z,15.24
2018-06-24T05:23:01.494Z,15.17
2018-06-24T05:23:27.000Z,15.22
2018-06-24T05:23:52.498Z,15.24
2018-06-24T05:24:18.011Z,15.06
2018-06-24T05:24:43.497Z,15.14
2018-06-24T05:25:09.007Z,15.21
2018-06-24T05:25:34.545Z,15.21
2018-06-24T05:26:00.009Z,15.11
2018-06-24T05:26:25.491Z,15.19
2018-06-24T05:26:51.006Z,15.19
2018-06-24T05:27:16.494Z,15.17
2018-06-24T05:27:41.982Z,15.22
2018-06-24T05:28:07.507Z,15.17
2018-06-24T05:28:33.013Z,15.24
2018-06-24T05:28:58.482Z,15.22
2018-06-24T05:29:23.975Z,15.21
2018-06-24T05:29:49.470Z,15.28
2018-06-24T05:30:14.999Z,15.24
2018-06-24T05:30:40.471Z,15.19
2018-06-24T05:31:05.955Z,15.24
2018-06-24T05:31:31.449Z,15.1
2018-06-24T05:31:56.917Z,15.22
2018-06-24T05:32:22.408Z,15.21
2018-06-24T05:32:47.869Z,15.25
2018-06-24T05:33:13.361Z,15.27
2018-06-24T05:33:38.849Z,15.22
2018-06-24T05:34:04.338Z,15.17
2018-06-24T05:34:29.839Z,15.21
2018-06-24T05:34:55.325Z,15.25
2018-06-24T05:35:20.793Z,15.29
2018-06-24T05:35:46.291Z,15.27
2018-06-24T05:36:11.775Z,15.22
2018-06-24T05:36:37.249Z,15.22
2018-06-24T05:37:02.721Z,15.22
2018-06-24T05:37:28.207Z,15.29
2018-06-24T05:37:53.706Z,15.29
2018-06-24T05:38:19.139Z,15.29
2018-06-24T05:38:44.655Z,15.25
2018-06-24T05:39:10.141Z,15.27
2018-06-24T05:40:13.732Z,15.19
2018-06-24T05:41:17.322Z,15.31
2018-06-24T05:41:42.833Z,15.31
2018-06-24T05:42:08.351Z,15.33
2018-06-24T05:42:33.846Z,15.33
2018-06-24T05:42:59.349Z,15.35
2018-06-24T05:43:24.829Z,15.28
2018-06-24T05:43:50.346Z,15.33
2018-06-24T05:44:15.818Z,15.35
2018-06-24T05:44:41.293Z,15.28
2018-06-24T05:45:06.789Z,15.42
2018-06-24T05:45:32.265Z,15.36
2018-06-24T05:45:57.799Z,15.31
2018-06-24T05:46:23.255Z,15.35
2018-06-24T05:46:48.753Z,15.39
2018-06-24T05:47:14.243Z,15.42
2018-06-24T05:47:39.732Z,15.39
2018-06-24T05:48:05.221Z,15.35
2018-06-24T05:48:30.722Z,15.25
2018-06-24T05:48:56.201Z,15.36
2018-06-24T05:49:21.660Z,15.29
2018-06-24T05:49:47.154Z,15.43
2018-06-24T05:50:12.671Z,15.36
2018-06-24T05:50:38.142Z,15.37
2018-06-24T05:51:03.671Z,15.4
2018-06-24T05:51:29.149Z,15.39
2018-06-24T05:51:54.630Z,15.4
2018-06-24T05:52:20.178Z,15.35
2018-06-24T05:52:45.633Z,15.39
2018-06-24T05:53:11.089Z,15.4
2018-06-24T05:53:36.568Z,15.36
2018-06-24T05:54:02.067Z,15.36
2018-06-24T05:54:27.567Z,15.37
2018-06-24T05:54:53.053Z,15.37
2018-06-24T05:55:18.544Z,15.44
2018-06-24T05:55:44.039Z,15.33
2018-06-24T05:56:09.529Z,15.39
2018-06-24T05:56:35.022Z,15.4
2018-06-24T05:57:00.541Z,15.39
2018-06-24T05:57:26.032Z,15.46
2018-06-24T05:57:51.507Z,15.49
2018-06-24T05:58:17.004Z,15.47
2018-06-24T05:58:42.499Z,15.42
2018-06-24T05:59:08.021Z,15.39
2018-06-24T06:00:16.741Z,15.49
2018-06-24T06:00:42.214Z,15.46
2018-06-24T06:01:07.730Z,15.54
2018-06-24T06:01:33.177Z,15.49
2018-06-24T06:01:58.664Z,15.49
2018-06-24T06:02:24.127Z,15.49
2018-06-24T06:02:49.657Z,15.51
2018-06-24T06:03:15.113Z,15.36
2018-06-24T06:03:40.668Z,15.42
2018-06-24T06:04:06.147Z,15.46
2018-06-24T06:04:31.664Z,15.51
2018-06-24T06:04:57.145Z,15.49
2018-06-24T06:05:22.622Z,15.42
2018-06-24T06:05:48.119Z,15.54
2018-06-24T06:06:36.445Z,15.52
2018-06-24T06:07:01.942Z,15.51
2018-06-24T06:07:27.434Z,15.57
2018-06-24T06:07:52.931Z,15.49
2018-06-24T06:08:18.436Z,15.55
2018-06-24T06:08:43.928Z,15.47
2018-06-24T06:09:09.437Z,15.46
2018-06-24T06:09:34.913Z,15.54
2018-06-24T06:10:00.412Z,15.49
2018-06-24T06:10:26.057Z,15.57
2018-06-24T06:10:51.435Z,15.55
2018-06-24T06:11:16.903Z,15.54
2018-06-24T06:11:42.438Z,15.52
2018-06-24T06:12:07.879Z,15.54
2018-06-24T06:12:33.378Z,15.64
2018-06-24T06:12:58.835Z,15.52
2018-06-24T06:13:24.339Z,15.59
2018-06-24T06:13:49.898Z,15.58
2018-06-24T06:14:15.353Z,15.61
2018-06-24T06:14:40.893Z,15.62
2018-06-24T06:15:06.359Z,15.57
2018-06-24T06:15:31.851Z,15.61
2018-06-24T06:15:57.335Z,15.58
2018-06-24T06:16:22.818Z,15.58
2018-06-24T06:16:48.315Z,15.59
2018-06-24T06:17:13.792Z,15.54
2018-06-24T06:17:39.280Z,15.57
2018-06-24T06:18:04.774Z,15.54
2018-06-24T06:18:30.295Z,15.52
2018-06-24T06:18:55.781Z,15.54
2018-06-24T06:19:21.277Z,15.54
2018-06-24T06:20:09.774Z,15.61
2018-06-24T06:20:35.282Z,15.58
2018-06-24T06:21:00.785Z,15.55
2018-06-24T06:21:26.269Z,15.57
2018-06-24T06:21:51.814Z,15.58
2018-06-24T06:22:17.251Z,15.54
2018-06-24T06:22:42.743Z,15.55
2018-06-24T06:23:08.226Z,15.57
2018-06-24T06:23:33.743Z,15.54
2018-06-24T06:23:59.216Z,15.52
2018-06-24T06:24:24.688Z,15.49
2018-06-24T06:24:50.168Z,15.58
2018-06-24T06:25:15.651Z,15.47
2018-06-24T06:25:41.154Z,15.55
2018-06-24T06:26:06.663Z,15.47
2018-06-24T06:26:32.158Z,15.54
2018-06-24T06:26:57.639Z,15.54
2018-06-24T06:27:23.126Z,15.51
2018-06-24T06:27:48.608Z,15.51
2018-06-24T06:28:14.059Z,15.46
2018-06-24T06:28:39.529Z,15.44
2018-06-24T06:29:05.049Z,15.44
2018-06-24T06:29:30.516Z,15.4
2018-06-24T06:29:56.007Z,15.4
2018-06-24T06:30:21.599Z,15.43
2018-06-24T06:30:47.022Z,15.35
2018-06-24T06:31:12.559Z,15.39
2018-06-24T06:31:37.996Z,15.4
2018-06-24T06:32:03.481Z,15.39
2018-06-24T06:32:28.959Z,15.37
2018-06-24T06:32:54.460Z,15.39
2018-06-24T06:33:19.942Z,15.4
2018-06-24T06:33:45.389Z,15.42
2018-06-24T06:34:10.902Z,15.39
2018-06-24T06:34:36.422Z,15.49
2018-06-24T06:35:01.902Z,15.42
2018-06-24T06:35:27.392Z,15.49
2018-06-24T06:35:52.903Z,15.46
2018-06-24T06:36:18.370Z,15.52
2018-06-24T06:36:43.940Z,15.52
2018-06-24T06:37:09.387Z,15.57
2018-06-24T06:37:34.845Z,15.54
2018-06-24T06:38:00.341Z,15.54
2018-06-24T06:38:25.831Z,15.54
2018-06-24T06:38:51.318Z,15.55
2018-06-24T06:39:16.815Z,15.46
2018-06-24T06:39:42.270Z,15.57
2018-06-24T06:40:07.745Z,15.55
2018-06-24T06:40:33.269Z,15.58
2018-06-24T06:40:58.785Z,15.62
2018-06-24T06:41:24.263Z,15.58
2018-06-24T06:41:49.739Z,15.61
2018-06-24T06:42:15.254Z,15.64
2018-06-24T06:42:40.708Z,15.77
2018-06-24T06:43:06.175Z,15.73
2018-06-24T06:43:31.671Z,15.7
2018-06-24T06:43:57.109Z,15.67
2018-06-24T06:44:22.643Z,15.67
2018-06-24T06:44:48.127Z,15.7
2018-06-24T06:45:13.695Z,15.65
2018-06-24T06:45:39.402Z,15.75
2018-06-24T06:46:04.585Z,15.76
2018-06-24T06:46:30.090Z,15.79
2018-06-24T06:47:38.774Z,15.84
2018-06-24T06:48:04.264Z,15.82
2018-06-24T06:48:29.749Z,15.82
2018-06-24T06:48:55.234Z,15.8
2018-06-24T06:49:20.731Z,15.82
2018-06-24T06:49:46.200Z,15.79
2018-06-24T06:50:11.676Z,15.9
2018-06-24T06:50:37.172Z,15.92
2018-06-24T06:51:02.717Z,15.79
2018-06-24T06:51:28.163Z,15.91
2018-06-24T06:51:53.665Z,15.91
2018-06-24T06:52:19.149Z,15.92
2018-06-24T06:52:44.758Z,15.94
2018-06-24T06:53:10.201Z,15.86
2018-06-24T06:53:35.732Z,15.95
2018-06-24T06:54:01.237Z,16
2018-06-24T06:54:26.749Z,16
2018-06-24T06:54:52.251Z,15.92
2018-06-24T06:55:50.802Z,15.95
2018-06-24T06:56:16.306Z,16.02
2018-06-24T06:56:41.804Z,16.01
2018-06-24T06:57:07.396Z,16.01
2018-06-24T06:57:32.899Z,15.98
2018-06-24T06:57:58.407Z,15.97
2018-06-24T06:58:23.900Z,16.02
2018-06-24T06:58:49.405Z,16.04
2018-06-24T06:59:14.894Z,16.12
2018-06-24T06:59:40.395Z,16.02
2018-06-24T07:00:05.978Z,16.05
2018-06-24T07:00:31.387Z,16.08
2018-06-24T07:00:56.883Z,16.04
2018-06-24T07:01:22.350Z,16.08
2018-06-24T07:01:47.838Z,16.08
2018-06-24T07:02:13.295Z,16.1
2018-06-24T07:02:38.772Z,16.15
2018-06-24T07:03:04.272Z,16.1
2018-06-24T07:03:29.832Z,16.15
2018-06-24T07:03:55.269Z,16.15
2018-06-24T07:04:20.768Z,16.16
2018-06-24T07:04:46.244Z,16.15
2018-06-24T07:05:11.759Z,16.21
2018-06-24T07:05:37.246Z,16.17
2018-06-24T07:06:02.695Z,16.21
2018-06-24T07:06:28.193Z,16.21
2018-06-24T07:06:53.695Z,16.29
2018-06-24T07:07:19.173Z,16.2
2018-06-24T07:07:44.650Z,16.28
2018-06-24T07:08:10.109Z,16.24
2018-06-24T07:08:35.615Z,16.24
2018-06-24T07:09:01.079Z,16.23
2018-06-24T07:09:26.561Z,16.24
2018-06-24T07:09:52.051Z,16.24
2018-06-24T07:10:17.524Z,16.17
2018-06-24T07:10:43.006Z,16.24
2018-06-24T07:11:08.516Z,16.24
2018-06-24T07:11:33.993Z,16.23
2018-06-24T07:11:59.461Z,16.28
2018-06-24T07:12:47.779Z,16.32
2018-06-24T07:13:13.275Z,16.26
2018-06-24T07:13:38.768Z,16.32
2018-06-24T07:14:04.281Z,16.26
2018-06-24T07:14:29.742Z,16.26
2018-06-24T07:14:55.252Z,16.23
2018-06-24T07:15:20.723Z,16.2
2018-06-24T07:15:46.200Z,16.26
2018-06-24T07:16:11.702Z,16.28
2018-06-24T07:16:37.231Z,16.21
2018-06-24T07:17:02.744Z,16.17
2018-06-24T07:17:28.248Z,16.23
2018-06-24T07:17:53.810Z,16.23
2018-06-24T07:18:19.229Z,16.23
2018-06-24T07:18:44.720Z,16.24
2018-06-24T07:19:10.218Z,16.23
2018-06-24T07:19:35.716Z,16.23
2018-06-24T07:20:01.197Z,16.29
2018-06-24T07:20:26.688Z,16.21
2018-06-24T07:20:52.174Z,16.24
2018-06-24T07:21:17.672Z,16.28
2018-06-24T07:21:43.189Z,16.26
2018-06-24T07:22:08.744Z,16.23
2018-06-24T07:22:34.178Z,16.31
2018-06-24T07:22:59.686Z,16.24
2018-06-24T07:23:25.171Z,16.28
2018-06-24T07:23:50.692Z,16.26
2018-06-24T07:24:16.164Z,16.33
2018-06-24T07:24:41.656Z,16.35
2018-06-24T07:25:07.129Z,16.26
2018-06-24T07:25:32.631Z,16.32
2018-06-24T07:25:58.091Z,16.35
2018-06-24T07:26:23.600Z,16.33
2018-06-24T07:26:49.084Z,16.33
2018-06-24T07:27:14.583Z,16.33
2018-06-24T07:27:40.132Z,16.38
2018-06-24T07:28:05.581Z,16.39
2018-06-24T07:28:31.101Z,16.41
2018-06-24T07:28:56.615Z,16.47
2018-06-24T07:29:22.130Z,16.47
2018-06-24T07:29:47.634Z,16.47
2018-06-24T07:30:13.154Z,16.46
2018-06-24T07:31:21.895Z,16.53
2018-06-24T07:31:47.396Z,16.54
2018-06-24T07:32:12.879Z,16.57
2018-06-24T07:32:38.371Z,16.56
2018-06-24T07:33:03.905Z,16.53
2018-06-24T07:33:29.464Z,16.57
2018-06-24T07:33:54.842Z,16.65
2018-06-24T07:34:20.341Z,16.64
2018-06-24T07:34:45.814Z,16.64
2018-06-24T07:35:11.323Z,16.56
2018-06-24T07:35:36.810Z,16.58
2018-06-24T07:36:02.334Z,16.61
2018-06-24T07:36:27.846Z,16.69
2018-06-24T07:36:53.316Z,16.69
2018-06-24T07:37:18.793Z,16.71
2018-06-24T07:37:44.287Z,16.69
2018-06-24T07:38:09.767Z,16.75
2018-06-24T07:38:35.233Z,16.71
2018-06-24T07:39:00.706Z,16.79
2018-06-24T07:39:26.231Z,16.74
2018-06-24T07:39:51.715Z,16.81
2018-06-24T07:40:17.215Z,16.83
2018-06-24T07:40:42.708Z,16.89
2018-06-24T07:41:08.201Z,16.93
2018-06-24T07:41:33.681Z,16.89
2018-06-24T07:41:59.181Z,16.9
2018-06-24T07:42:24.702Z,16.97
2018-06-24T07:42:50.190Z,16.96
2018-06-24T07:43:15.711Z,16.97
2018-06-24T07:43:41.189Z,17.09
2018-06-24T07:44:06.678Z,17.04
2018-06-24T07:44:32.209Z,17.06
2018-06-24T07:44:57.717Z,16.97
2018-06-24T07:45:23.174Z,17.05
2018-06-24T07:45:48.665Z,17.05
2018-06-24T07:46:14.127Z,17.05
2018-06-24T07:46:39.612Z,17.05
2018-06-24T07:47:05.099Z,17.06
2018-06-24T07:47:30.598Z,17.16
2018-06-24T07:47:56.060Z,17.06
2018-06-24T07:48:21.561Z,17.2
2018-06-24T07:48:47.090Z,17.15
2018-06-24T07:49:12.570Z,17.2
2018-06-24T07:49:38.056Z,17.19
2018-06-24T07:50:03.551Z,17.08
2018-06-24T07:50:29.033Z,17.15
2018-06-24T07:50:54.567Z,17.08
2018-06-24T07:51:20.060Z,17.2
2018-06-24T07:51:45.546Z,17.15
2018-06-24T07:52:11.052Z,17.14
2018-06-24T07:52:36.552Z,17.14
2018-06-24T07:53:02.030Z,17.16
2018-06-24T07:53:27.504Z,17.2
2018-06-24T07:53:53.013Z,17.16
2018-06-24T07:54:18.506Z,17.06
2018-06-24T07:54:44.004Z,17.2
2018-06-24T07:55:09.478Z,17.14
2018-06-24T07:55:34.972Z,17.23
2018-06-24T07:56:00.465Z,17.06
2018-06-24T07:56:25.956Z,17.15
2018-06-24T07:56:51.439Z,17.16
2018-06-24T07:57:16.947Z,17.14
2018-06-24T07:57:42.434Z,17.11
2018-06-24T07:58:07.917Z,17.09
2018-06-24T07:58:33.404Z,17.06
2018-06-24T07:58:58.913Z,17.01
2018-06-24T07:59:24.396Z,17.09
2018-06-24T07:59:49.888Z,17.11
2018-06-24T08:00:15.378Z,16.94
2018-06-24T08:00:40.885Z,16.93
2018-06-24T08:01:06.381Z,17.02
2018-06-24T08:01:31.874Z,17.01
2018-06-24T08:01:57.386Z,16.94
2018-06-24T08:02:22.864Z,17.08
2018-06-24T08:02:48.349Z,17.02
2018-06-24T08:03:13.877Z,17.01
2018-06-24T08:03:39.339Z,16.96
2018-06-24T08:04:04.825Z,16.96
2018-06-24T08:04:30.347Z,17.09
2018-06-24T08:04:55.820Z,17.06
2018-06-24T08:05:21.462Z,17.05
2018-06-24T08:05:46.801Z,17.04
2018-06-24T08:06:12.260Z,17.12
2018-06-24T08:06:37.788Z,17.04
2018-06-24T08:07:03.278Z,17.19
2018-06-24T08:07:28.771Z,17.22
2018-06-24T08:07:54.269Z,17.19
2018-06-24T08:08:19.742Z,17.19
2018-06-24T08:08:45.269Z,17.15
2018-06-24T08:09:10.798Z,17.15
2018-06-24T08:09:36.289Z,17.2
2018-06-24T08:10:01.770Z,17.24
2018-06-24T08:10:27.277Z,17.26
2018-06-24T08:10:52.773Z,17.24
2018-06-24T08:11:18.269Z,17.29
2018-06-24T08:11:43.744Z,17.26
2018-06-24T08:12:09.223Z,17.23
2018-06-24T08:12:34.712Z,17.3
2018-06-24T08:13:00.208Z,17.27
2018-06-24T08:13:25.741Z,17.3
2018-06-24T08:13:51.260Z,17.24
2018-06-24T08:14:16.762Z,17.22
2018-06-24T08:14:42.275Z,17.29
2018-06-24T08:15:07.769Z,17.34
2018-06-24T08:15:33.256Z,17.27
2018-06-24T08:15:58.763Z,17.31
2018-06-24T08:16:24.219Z,17.27
2018-06-24T08:16:49.702Z,17.31
2018-06-24T08:17:15.200Z,17.26
2018-06-24T08:17:40.707Z,17.27
2018-06-24T08:18:06.189Z,17.26
2018-06-24T08:18:31.701Z,17.26
2018-06-24T08:18:57.196Z,17.29
2018-06-24T08:19:22.659Z,17.29
2018-06-24T08:19:48.253Z,17.27
2018-06-24T08:20:13.915Z,17.26
2018-06-24T08:20:39.407Z,17.24
2018-06-24T08:21:04.977Z,17.23
2018-06-24T08:21:30.476Z,17.24
2018-06-24T08:21:55.953Z,17.29
2018-06-24T08:22:21.399Z,17.26
2018-06-24T08:22:46.956Z,17.33
2018-06-24T08:23:12.381Z,17.23
2018-06-24T08:23:37.852Z,17.24
2018-06-24T08:24:03.363Z,17.33
2018-06-24T08:24:28.857Z,17.26
2018-06-24T08:24:54.369Z,17.27
2018-06-24T08:25:19.859Z,17.26
2018-06-24T08:25:45.354Z,17.3
2018-06-24T08:26:10.881Z,17.26
2018-06-24T08:26:36.359Z,17.29
2018-06-24T08:27:45.052Z,17.3
2018-06-24T08:28:10.569Z,17.31
2018-06-24T08:28:36.083Z,17.23
2018-06-24T08:29:01.557Z,17.36
2018-06-24T08:29:27.051Z,17.3
2018-06-24T08:29:52.572Z,17.36
2018-06-24T08:30:18.026Z,17.3
2018-06-24T08:30:43.754Z,17.3
2018-06-24T08:31:09.183Z,17.3
2018-06-24T08:31:34.735Z,17.3
2018-06-24T08:32:00.173Z,17.3
2018-06-24T08:32:25.634Z,17.27
2018-06-24T08:32:51.129Z,17.29
2018-06-24T08:33:16.809Z,17.31
2018-06-24T08:33:42.493Z,17.29
2018-06-24T08:34:07.862Z,17.39
2018-06-24T08:34:33.361Z,17.3
2018-06-24T08:34:58.858Z,17.36
2018-06-24T08:35:24.348Z,17.38
2018-06-24T08:35:49.818Z,17.36
2018-06-24T08:36:15.497Z,17.44
2018-06-24T08:36:40.955Z,17.3
2018-06-24T08:37:06.475Z,17.44
2018-06-24T08:37:32.008Z,17.38
2018-06-24T08:37:57.490Z,17.46
2018-06-24T08:38:22.981Z,17.48
2018-06-24T08:38:48.492Z,17.49
2018-06-24T08:39:14.003Z,17.48
2018-06-24T08:39:39.632Z,17.51
2018-06-24T08:40:05.154Z,17.46
2018-06-24T08:40:30.636Z,17.49
2018-06-24T08:40:56.148Z,17.6
2018-06-24T08:41:21.662Z,17.67
2018-06-24T08:41:47.116Z,17.63
2018-06-24T08:42:12.672Z,17.56
2018-06-24T08:42:38.155Z,17.7
2018-06-24T08:43:03.673Z,17.72
2018-06-24T08:43:29.125Z,17.68
2018-06-24T08:43:54.637Z,17.68
2018-06-24T08:44:20.111Z,17.64
2018-06-24T08:44:45.580Z,17.74
2018-06-24T08:45:11.079Z,17.78
2018-06-24T08:45:36.557Z,17.78
2018-06-24T08:46:02.049Z,17.78
2018-06-24T08:46:27.505Z,17.67
2018-06-24T08:46:53.013Z,17.86
2018-06-24T08:47:18.599Z,17.79
2018-06-24T08:47:44.069Z,17.85
2018-06-24T08:48:09.594Z,17.83
2018-06-24T08:48:35.107Z,17.76
2018-06-24T08:49:33.160Z,17.86
2018-06-24T08:49:58.644Z,17.83
2018-06-24T08:50:24.140Z,17.89
2018-06-24T08:50:49.667Z,17.9
2018-06-24T08:51:15.143Z,17.87
2018-06-24T08:51:40.664Z,17.92
2018-06-24T08:52:06.166Z,17.87
2018-06-24T08:52:31.658Z,17.86
2018-06-24T08:52:57.180Z,17.86
2018-06-24T08:53:55.691Z,17.87
2018-06-24T08:54:21.253Z,17.89
2018-06-24T08:54:46.697Z,17.9
2018-06-24T08:55:12.184Z,17.92
2018-06-24T08:55:37.665Z,17.95
2018-06-24T08:56:03.170Z,17.94
2018-06-24T08:56:28.681Z,17.98
2018-06-24T08:56:54.194Z,17.95
2018-06-24T08:57:19.674Z,18
2018-06-24T08:57:45.152Z,18.07
2018-06-24T08:58:10.664Z,18.04
2018-06-24T08:58:36.158Z,18
2018-06-24T08:59:01.644Z,17.97
2018-06-24T08:59:27.136Z,17.92
2018-06-24T08:59:52.635Z,17.95
2018-06-24T09:00:18.120Z,17.95
2018-06-24T09:00:43.720Z,17.92
2018-06-24T09:01:09.088Z,17.92
2018-06-24T09:01:34.584Z,17.95
2018-06-24T09:02:00.070Z,17.95
2018-06-24T09:02:25.575Z,18.01
2018-06-24T09:02:51.087Z,18.01
2018-06-24T09:03:59.795Z,18.05
2018-06-24T09:04:25.286Z,18.03
2018-06-24T09:04:50.800Z,18.07
2018-06-24T09:05:16.273Z,18.08
2018-06-24T09:05:41.763Z,18.08
2018-06-24T09:06:07.235Z,18.05
2018-06-24T09:06:32.727Z,18.07
2018-06-24T09:06:58.223Z,18.11
2018-06-24T09:07:23.713Z,18.1
2018-06-24T09:07:49.205Z,18.08
2018-06-24T09:08:14.699Z,18.13
2018-06-24T09:08:40.202Z,18.07
2018-06-24T09:09:05.708Z,18.11
2018-06-24T09:09:31.191Z,18.04
2018-06-24T09:09:56.702Z,18.1
2018-06-24T09:10:22.192Z,18.01
2018-06-24T09:10:47.688Z,17.95
2018-06-24T09:11:13.195Z,18
2018-06-24T09:11:38.687Z,18.01
2018-06-24T09:12:04.179Z,17.97
2018-06-24T09:12:29.660Z,17.95
2018-06-24T09:12:55.176Z,17.92
2018-06-24T09:13:20.679Z,17.95
2018-06-24T09:13:46.202Z,17.95
2018-06-24T09:14:11.704Z,17.89
2018-06-24T09:14:37.192Z,17.9
2018-06-24T09:15:02.708Z,17.92
2018-06-24T09:15:28.178Z,17.97
2018-06-24T09:15:53.715Z,17.92
2018-06-24T09:16:19.205Z,17.9
2018-06-24T09:16:44.626Z,17.92
2018-06-24T09:17:10.130Z,17.9
2018-06-24T09:17:35.596Z,17.87
2018-06-24T09:18:01.145Z,17.89
2018-06-24T09:18:26.693Z,17.94
2018-06-24T09:18:52.179Z,17.92
2018-06-24T09:19:17.728Z,17.92
2018-06-24T09:19:43.215Z,18
2018-06-24T09:20:08.709Z,17.92
2018-06-24T09:20:34.185Z,17.97
2018-06-24T09:20:59.697Z,18.03
2018-06-24T09:21:25.191Z,17.97
2018-06-24T09:21:50.706Z,18.03
2018-06-24T09:22:16.189Z,18.01
2018-06-24T09:22:41.704Z,17.98
2018-06-24T09:23:07.202Z,18.01
2018-06-24T09:23:32.699Z,18.03
2018-06-24T09:23:58.174Z,17.98
2018-06-24T09:24:23.664Z,17.95
2018-06-24T09:24:49.161Z,17.9
2018-06-24T09:25:14.645Z,17.92
2018-06-24T09:25:40.150Z,17.87
2018-06-24T09:26:05.627Z,17.87
2018-06-24T09:26:31.106Z,17.86
2018-06-24T09:26:56.584Z,17.85
2018-06-24T09:27:22.081Z,17.87
2018-06-24T09:27:47.575Z,17.76
2018-06-24T09:28:13.064Z,17.83
2018-06-24T09:28:38.559Z,17.83
2018-06-24T09:29:04.060Z,17.87
2018-06-24T09:29:29.578Z,17.68
2018-06-24T09:29:55.048Z,17.68
2018-06-24T09:30:20.519Z,17.7
2018-06-24T09:30:46.060Z,17.7
2018-06-24T09:31:11.550Z,17.64
2018-06-24T09:31:37.033Z,17.59
2018-06-24T09:32:02.516Z,17.59
2018-06-24T09:32:28.043Z,17.49
2018-06-24T09:32:53.528Z,17.44
2018-06-24T09:33:19.051Z,17.46
2018-06-24T09:34:22.181Z,17.49
2018-06-24T09:34:47.685Z,17.49
2018-06-24T09:35:13.187Z,17.63
2018-06-24T09:35:38.691Z,17.54
2018-06-24T09:36:32.147Z,17.6
2018-06-24T09:36:57.623Z,17.64
2018-06-24T09:37:23.122Z,17.57
2018-06-24T09:37:48.631Z,17.59
2018-06-24T09:38:42.048Z,17.65
2018-06-24T09:39:07.518Z,17.68
2018-06-24T09:39:33.010Z,17.7
2018-06-24T09:39:58.522Z,17.65
2018-06-24T09:40:51.986Z,17.56
2018-06-24T09:41:17.438Z,17.64
2018-06-24T09:41:42.940Z,17.64
2018-06-24T09:42:08.434Z,17.63
2018-06-24T09:42:33.957Z,17.63
2018-06-24T09:42:59.444Z,17.63
2018-06-24T09:43:24.941Z,17.59
2018-06-24T09:43:50.442Z,17.57
2018-06-24T09:44:15.965Z,17.56
2018-06-24T09:44:41.465Z,17.44
2018-06-24T09:45:06.942Z,17.45
2018-06-24T09:45:32.439Z,17.44
2018-06-24T09:45:57.957Z,17.49
2018-06-24T09:46:23.435Z,17.59
2018-06-24T09:46:48.931Z,17.56
2018-06-24T09:47:14.445Z,17.64
2018-06-24T09:47:39.921Z,17.49
2018-06-24T09:48:05.431Z,17.64
2018-06-24T09:48:30.927Z,17.74
2018-06-24T09:48:56.415Z,17.65
2018-06-24T09:49:21.869Z,17.74
2018-06-24T09:49:47.375Z,17.71
2018-06-24T09:50:12.880Z,17.8
2018-06-24T09:50:38.667Z,17.82
2018-06-24T09:51:03.995Z,17.9
2018-06-24T09:51:29.465Z,17.94